sensor_id;sensor_type;location;lat;lon;timestamp;P1;durP1;ratioP1;P2;durP2;ratioP2
6517;SDS011;3292;48.944;9.240;2022-10-31T00:00:05;15.80;;;10.03;;
6517;SDS011;3292;48.944;9.240;2022-10-31T00:02:34;16.30;;;10.40;;
6517;SDS011;3292;48.944;9.240;2022-10-31T00:05:00;14.77;;;9.90;;
6517;SDS011;3292;48.944;9.240;2022-10-31T00:07:27;13.50;;;9.67;;
6517;SDS011;3292;48.944;9.240;2022-10-31T00:09:55;13.63;;;9.63;;
6517;SDS011;3292;48.944;9.240;2022-10-31T00:12:22;13.00;;;9.93;;
6517;SDS011;3292;48.944;9.240;2022-10-31T00:14:49;14.57;;;9.13;;
6517;SDS011;3292;48.944;9.240;2022-10-31T00:17:16;15.90;;;9.57;;
6517;SDS011;3292;48.944;9.240;2022-10-31T00:19:43;13.03;;;9.50;;
6517;SDS011;3292;48.944;9.240;2022-10-31T00:22:09;13.43;;;8.47;;
6517;SDS011;3292;48.944;9.240;2022-10-31T00:24:36;13.33;;;8.37;;
6517;SDS011;3292;48.944;9.240;2022-10-31T00:27:04;11.83;;;8.83;;
6517;SDS011;3292;48.944;9.240;2022-10-31T00:29:31;12.47;;;8.63;;
6517;SDS011;3292;48.944;9.240;2022-10-31T00:31:58;12.90;;;9.07;;
6517;SDS011;3292;48.944;9.240;2022-10-31T00:34:25;13.30;;;9.23;;
6517;SDS011;3292;48.944;9.240;2022-10-31T00:36:51;15.77;;;9.40;;
6517;SDS011;3292;48.944;9.240;2022-10-31T00:39:18;15.13;;;9.67;;
6517;SDS011;3292;48.944;9.240;2022-10-31T00:41:45;19.67;;;9.03;;
6517;SDS011;3292;48.944;9.240;2022-10-31T00:44:13;12.47;;;8.77;;
6517;SDS011;3292;48.944;9.240;2022-10-31T00:46:40;15.80;;;9.07;;
6517;SDS011;3292;48.944;9.240;2022-10-31T00:49:07;16.00;;;9.20;;
6517;SDS011;3292;48.944;9.240;2022-10-31T00:51:34;14.70;;;8.40;;
6517;SDS011;3292;48.944;9.240;2022-10-31T00:54:00;12.80;;;9.30;;
6517;SDS011;3292;48.944;9.240;2022-10-31T00:56:27;14.77;;;8.97;;
6517;SDS011;3292;48.944;9.240;2022-10-31T00:58:54;12.57;;;8.47;;
6517;SDS011;3292;48.944;9.240;2022-10-31T01:01:22;14.33;;;9.57;;
6517;SDS011;3292;48.944;9.240;2022-10-31T01:03:49;13.07;;;9.27;;
6517;SDS011;3292;48.944;9.240;2022-10-31T01:06:16;12.67;;;8.87;;
6517;SDS011;3292;48.944;9.240;2022-10-31T01:08:44;13.17;;;9.33;;
6517;SDS011;3292;48.944;9.240;2022-10-31T01:11:14;11.93;;;8.27;;
6517;SDS011;3292;48.944;9.240;2022-10-31T01:13:42;12.90;;;9.23;;
6517;SDS011;3292;48.944;9.240;2022-10-31T01:16:10;11.90;;;8.60;;
6517;SDS011;3292;48.944;9.240;2022-10-31T01:18:40;12.20;;;8.97;;
6517;SDS011;3292;48.944;9.240;2022-10-31T01:21:08;11.50;;;8.57;;
6517;SDS011;3292;48.944;9.240;2022-10-31T01:23:36;14.27;;;9.07;;
6517;SDS011;3292;48.944;9.240;2022-10-31T01:26:05;12.43;;;8.60;;
6517;SDS011;3292;48.944;9.240;2022-10-31T01:28:34;12.07;;;9.30;;
6517;SDS011;3292;48.944;9.240;2022-10-31T01:31:04;15.80;;;9.17;;
6517;SDS011;3292;48.944;9.240;2022-10-31T01:33:33;10.83;;;8.97;;
6517;SDS011;3292;48.944;9.240;2022-10-31T01:36:01;18.40;;;10.17;;
6517;SDS011;3292;48.944;9.240;2022-10-31T01:38:28;12.60;;;9.57;;
6517;SDS011;3292;48.944;9.240;2022-10-31T01:40:54;12.93;;;9.87;;
6517;SDS011;3292;48.944;9.240;2022-10-31T01:43:21;11.53;;;9.73;;
6517;SDS011;3292;48.944;9.240;2022-10-31T01:45:50;14.63;;;9.23;;
6517;SDS011;3292;48.944;9.240;2022-10-31T01:48:20;12.97;;;9.37;;
6517;SDS011;3292;48.944;9.240;2022-10-31T01:50:50;13.00;;;9.00;;
6517;SDS011;3292;48.944;9.240;2022-10-31T01:53:20;14.67;;;8.63;;
6517;SDS011;3292;48.944;9.240;2022-10-31T01:55:48;11.17;;;9.53;;
6517;SDS011;3292;48.944;9.240;2022-10-31T01:58:17;11.40;;;8.83;;
6517;SDS011;3292;48.944;9.240;2022-10-31T02:00:51;11.93;;;8.23;;
6517;SDS011;3292;48.944;9.240;2022-10-31T02:03:20;12.13;;;8.70;;
6517;SDS011;3292;48.944;9.240;2022-10-31T02:05:49;10.83;;;8.60;;
6517;SDS011;3292;48.944;9.240;2022-10-31T02:08:17;11.10;;;9.50;;
6517;SDS011;3292;48.944;9.240;2022-10-31T02:10:47;11.33;;;8.13;;
6517;SDS011;3292;48.944;9.240;2022-10-31T02:13:15;13.90;;;8.57;;
6517;SDS011;3292;48.944;9.240;2022-10-31T02:15:43;13.23;;;8.77;;
6517;SDS011;3292;48.944;9.240;2022-10-31T02:18:13;9.80;;;8.17;;
6517;SDS011;3292;48.944;9.240;2022-10-31T02:20:42;12.57;;;8.80;;
6517;SDS011;3292;48.944;9.240;2022-10-31T02:23:26;14.13;;;8.10;;
6517;SDS011;3292;48.944;9.240;2022-10-31T02:26:31;11.27;;;8.37;;
6517;SDS011;3292;48.944;9.240;2022-10-31T02:32:20;12.40;;;7.93;;
6517;SDS011;3292;48.944;9.240;2022-10-31T02:34:55;12.27;;;8.23;;
6517;SDS011;3292;48.944;9.240;2022-10-31T02:37:25;14.90;;;8.73;;
6517;SDS011;3292;48.944;9.240;2022-10-31T02:40:00;11.07;;;8.17;;
6517;SDS011;3292;48.944;9.240;2022-10-31T02:42:32;12.60;;;8.57;;
6517;SDS011;3292;48.944;9.240;2022-10-31T02:45:05;14.77;;;7.80;;
6517;SDS011;3292;48.944;9.240;2022-10-31T02:47:37;15.87;;;8.97;;
6517;SDS011;3292;48.944;9.240;2022-10-31T02:50:06;12.03;;;7.60;;
6517;SDS011;3292;48.944;9.240;2022-10-31T02:52:37;9.63;;;8.07;;
6517;SDS011;3292;48.944;9.240;2022-10-31T02:55:10;12.57;;;8.37;;
6517;SDS011;3292;48.944;9.240;2022-10-31T02:57:38;10.03;;;7.80;;
6517;SDS011;3292;48.944;9.240;2022-10-31T03:00:08;12.60;;;7.90;;
6517;SDS011;3292;48.944;9.240;2022-10-31T03:02:55;9.73;;;8.00;;
6517;SDS011;3292;48.944;9.240;2022-10-31T03:05:32;11.73;;;8.13;;
6517;SDS011;3292;48.944;9.240;2022-10-31T03:08:08;9.33;;;8.20;;
6517;SDS011;3292;48.944;9.240;2022-10-31T03:10:41;10.77;;;7.87;;
6517;SDS011;3292;48.944;9.240;2022-10-31T03:13:12;12.93;;;8.27;;
6517;SDS011;3292;48.944;9.240;2022-10-31T03:15:48;15.10;;;8.60;;
6517;SDS011;3292;48.944;9.240;2022-10-31T03:18:20;12.00;;;9.17;;
6517;SDS011;3292;48.944;9.240;2022-10-31T03:20:53;12.87;;;9.17;;
6517;SDS011;3292;48.944;9.240;2022-10-31T03:23:26;12.70;;;8.63;;
6517;SDS011;3292;48.944;9.240;2022-10-31T03:25:56;11.67;;;8.60;;
6517;SDS011;3292;48.944;9.240;2022-10-31T03:28:26;18.27;;;8.87;;
6517;SDS011;3292;48.944;9.240;2022-10-31T03:30:56;11.93;;;8.60;;
6517;SDS011;3292;48.944;9.240;2022-10-31T03:33:26;12.83;;;8.00;;
6517;SDS011;3292;48.944;9.240;2022-10-31T03:35:55;11.83;;;8.73;;
6517;SDS011;3292;48.944;9.240;2022-10-31T03:38:25;9.50;;;7.93;;
6517;SDS011;3292;48.944;9.240;2022-10-31T03:40:54;11.67;;;7.30;;
6517;SDS011;3292;48.944;9.240;2022-10-31T03:43:26;11.83;;;7.97;;
6517;SDS011;3292;48.944;9.240;2022-10-31T03:45:56;13.27;;;8.13;;
6517;SDS011;3292;48.944;9.240;2022-10-31T03:48:23;9.90;;;7.67;;
6517;SDS011;3292;48.944;9.240;2022-10-31T03:50:54;13.47;;;7.67;;
6517;SDS011;3292;48.944;9.240;2022-10-31T03:53:26;10.80;;;8.80;;
6517;SDS011;3292;48.944;9.240;2022-10-31T03:55:59;11.27;;;8.43;;
6517;SDS011;3292;48.944;9.240;2022-10-31T03:58:29;9.67;;;8.70;;
6517;SDS011;3292;48.944;9.240;2022-10-31T04:01:02;8.70;;;7.60;;
6517;SDS011;3292;48.944;9.240;2022-10-31T04:03:33;8.90;;;7.93;;
6517;SDS011;3292;48.944;9.240;2022-10-31T04:06:04;11.67;;;8.10;;
6517;SDS011;3292;48.944;9.240;2022-10-31T04:08:36;8.33;;;7.47;;
6517;SDS011;3292;48.944;9.240;2022-10-31T04:11:06;12.50;;;8.13;;
6517;SDS011;3292;48.944;9.240;2022-10-31T04:13:35;10.63;;;7.27;;
6517;SDS011;3292;48.944;9.240;2022-10-31T04:16:04;15.77;;;7.27;;
6517;SDS011;3292;48.944;9.240;2022-10-31T04:18:34;10.77;;;7.50;;
6517;SDS011;3292;48.944;9.240;2022-10-31T04:21:01;9.27;;;6.80;;
6517;SDS011;3292;48.944;9.240;2022-10-31T04:23:29;9.97;;;7.20;;
6517;SDS011;3292;48.944;9.240;2022-10-31T04:25:56;9.70;;;7.20;;
6517;SDS011;3292;48.944;9.240;2022-10-31T04:28:23;10.20;;;6.93;;
6517;SDS011;3292;48.944;9.240;2022-10-31T04:30:50;9.07;;;6.57;;
6517;SDS011;3292;48.944;9.240;2022-10-31T04:33:17;11.57;;;6.33;;
6517;SDS011;3292;48.944;9.240;2022-10-31T04:35:45;9.03;;;7.13;;
6517;SDS011;3292;48.944;9.240;2022-10-31T04:38:13;11.13;;;7.20;;
6517;SDS011;3292;48.944;9.240;2022-10-31T04:40:40;12.20;;;7.23;;
6517;SDS011;3292;48.944;9.240;2022-10-31T04:43:07;11.13;;;7.53;;
6517;SDS011;3292;48.944;9.240;2022-10-31T04:45:33;12.17;;;7.80;;
6517;SDS011;3292;48.944;9.240;2022-10-31T04:48:00;10.50;;;7.27;;
6517;SDS011;3292;48.944;9.240;2022-10-31T04:50:27;9.17;;;7.20;;
6517;SDS011;3292;48.944;9.240;2022-10-31T04:52:55;9.23;;;7.87;;
6517;SDS011;3292;48.944;9.240;2022-10-31T04:55:22;9.97;;;7.30;;
6517;SDS011;3292;48.944;9.240;2022-10-31T04:57:49;10.10;;;7.03;;
6517;SDS011;3292;48.944;9.240;2022-10-31T05:00:16;12.23;;;7.43;;
6517;SDS011;3292;48.944;9.240;2022-10-31T05:02:45;11.43;;;7.70;;
6517;SDS011;3292;48.944;9.240;2022-10-31T05:05:12;12.17;;;7.80;;
6517;SDS011;3292;48.944;9.240;2022-10-31T05:07:39;10.37;;;7.60;;
6517;SDS011;3292;48.944;9.240;2022-10-31T05:10:08;9.87;;;7.40;;
6517;SDS011;3292;48.944;9.240;2022-10-31T05:12:36;11.33;;;7.47;;
6517;SDS011;3292;48.944;9.240;2022-10-31T05:15:04;9.90;;;7.73;;
6517;SDS011;3292;48.944;9.240;2022-10-31T05:17:31;12.27;;;7.43;;
6517;SDS011;3292;48.944;9.240;2022-10-31T05:19:58;9.80;;;6.83;;
6517;SDS011;3292;48.944;9.240;2022-10-31T05:22:25;10.97;;;7.67;;
6517;SDS011;3292;48.944;9.240;2022-10-31T05:24:51;7.67;;;6.80;;
6517;SDS011;3292;48.944;9.240;2022-10-31T05:27:20;10.53;;;7.03;;
6517;SDS011;3292;48.944;9.240;2022-10-31T05:29:46;8.07;;;7.10;;
6517;SDS011;3292;48.944;9.240;2022-10-31T05:32:13;10.57;;;7.17;;
6517;SDS011;3292;48.944;9.240;2022-10-31T05:34:40;9.20;;;7.90;;
6517;SDS011;3292;48.944;9.240;2022-10-31T05:37:07;9.90;;;7.57;;
6517;SDS011;3292;48.944;9.240;2022-10-31T05:39:34;7.47;;;6.77;;
6517;SDS011;3292;48.944;9.240;2022-10-31T05:42:01;9.10;;;6.50;;
6517;SDS011;3292;48.944;9.240;2022-10-31T05:44:29;8.27;;;7.00;;
6517;SDS011;3292;48.944;9.240;2022-10-31T05:46:56;8.67;;;6.57;;
6517;SDS011;3292;48.944;9.240;2022-10-31T05:49:23;9.50;;;6.60;;
6517;SDS011;3292;48.944;9.240;2022-10-31T05:51:49;11.07;;;7.93;;
6517;SDS011;3292;48.944;9.240;2022-10-31T05:54:16;8.63;;;7.03;;
6517;SDS011;3292;48.944;9.240;2022-10-31T05:56:43;10.73;;;7.97;;
6517;SDS011;3292;48.944;9.240;2022-10-31T05:59:10;9.93;;;7.77;;
6517;SDS011;3292;48.944;9.240;2022-10-31T06:01:38;12.93;;;7.63;;
6517;SDS011;3292;48.944;9.240;2022-10-31T06:04:05;11.97;;;8.37;;
6517;SDS011;3292;48.944;9.240;2022-10-31T06:06:32;9.03;;;7.00;;
6517;SDS011;3292;48.944;9.240;2022-10-31T06:08:58;10.47;;;7.20;;
6517;SDS011;3292;48.944;9.240;2022-10-31T06:11:25;10.97;;;8.27;;
6517;SDS011;3292;48.944;9.240;2022-10-31T06:13:52;11.37;;;8.53;;
6517;SDS011;3292;48.944;9.240;2022-10-31T06:16:19;10.17;;;7.03;;
6517;SDS011;3292;48.944;9.240;2022-10-31T06:18:47;11.37;;;7.47;;
6517;SDS011;3292;48.944;9.240;2022-10-31T06:21:14;10.33;;;7.43;;
6517;SDS011;3292;48.944;9.240;2022-10-31T06:23:41;11.67;;;7.00;;
6517;SDS011;3292;48.944;9.240;2022-10-31T06:26:07;8.90;;;7.40;;
6517;SDS011;3292;48.944;9.240;2022-10-31T06:28:34;10.43;;;7.00;;
6517;SDS011;3292;48.944;9.240;2022-10-31T06:31:01;12.80;;;7.27;;
6517;SDS011;3292;48.944;9.240;2022-10-31T06:33:28;10.07;;;6.90;;
6517;SDS011;3292;48.944;9.240;2022-10-31T06:35:56;7.77;;;6.27;;
6517;SDS011;3292;48.944;9.240;2022-10-31T06:38:23;8.80;;;6.00;;
6517;SDS011;3292;48.944;9.240;2022-10-31T06:40:51;12.10;;;6.60;;
6517;SDS011;3292;48.944;9.240;2022-10-31T06:43:18;10.53;;;6.93;;
6517;SDS011;3292;48.944;9.240;2022-10-31T06:45:46;9.90;;;6.60;;
6517;SDS011;3292;48.944;9.240;2022-10-31T06:48:13;9.93;;;6.70;;
6517;SDS011;3292;48.944;9.240;2022-10-31T06:50:39;8.73;;;6.53;;
6517;SDS011;3292;48.944;9.240;2022-10-31T06:53:08;9.70;;;6.33;;
6517;SDS011;3292;48.944;9.240;2022-10-31T06:55:35;9.30;;;7.57;;
6517;SDS011;3292;48.944;9.240;2022-10-31T06:58:02;12.07;;;6.73;;
6517;SDS011;3292;48.944;9.240;2022-10-31T07:00:29;8.23;;;6.73;;
6517;SDS011;3292;48.944;9.240;2022-10-31T07:02:57;10.97;;;6.40;;
6517;SDS011;3292;48.944;9.240;2022-10-31T07:05:26;8.40;;;6.47;;
6517;SDS011;3292;48.944;9.240;2022-10-31T07:07:53;8.90;;;7.00;;
6517;SDS011;3292;48.944;9.240;2022-10-31T07:10:22;10.37;;;6.90;;
6517;SDS011;3292;48.944;9.240;2022-10-31T07:12:53;9.03;;;6.10;;
6517;SDS011;3292;48.944;9.240;2022-10-31T07:15:21;7.87;;;6.43;;
6517;SDS011;3292;48.944;9.240;2022-10-31T07:17:47;12.23;;;6.30;;
6517;SDS011;3292;48.944;9.240;2022-10-31T07:20:14;6.93;;;6.07;;
6517;SDS011;3292;48.944;9.240;2022-10-31T07:22:41;12.90;;;6.70;;
6517;SDS011;3292;48.944;9.240;2022-10-31T07:25:08;9.53;;;6.87;;
6517;SDS011;3292;48.944;9.240;2022-10-31T07:27:37;9.13;;;6.33;;
6517;SDS011;3292;48.944;9.240;2022-10-31T07:30:05;8.83;;;6.03;;
6517;SDS011;3292;48.944;9.240;2022-10-31T07:32:37;8.10;;;6.63;;
6517;SDS011;3292;48.944;9.240;2022-10-31T07:35:05;9.23;;;6.80;;
6517;SDS011;3292;48.944;9.240;2022-10-31T07:37:32;8.67;;;6.33;;
6517;SDS011;3292;48.944;9.240;2022-10-31T07:39:59;8.60;;;6.70;;
6517;SDS011;3292;48.944;9.240;2022-10-31T07:42:26;10.33;;;6.47;;
6517;SDS011;3292;48.944;9.240;2022-10-31T07:44:55;8.93;;;6.57;;
6517;SDS011;3292;48.944;9.240;2022-10-31T07:47:21;11.80;;;6.97;;
6517;SDS011;3292;48.944;9.240;2022-10-31T07:49:48;11.07;;;6.90;;
6517;SDS011;3292;48.944;9.240;2022-10-31T07:52:15;11.60;;;7.70;;
6517;SDS011;3292;48.944;9.240;2022-10-31T07:54:42;9.03;;;6.90;;
6517;SDS011;3292;48.944;9.240;2022-10-31T07:57:08;9.43;;;6.97;;
6517;SDS011;3292;48.944;9.240;2022-10-31T07:59:35;8.57;;;6.83;;
6517;SDS011;3292;48.944;9.240;2022-10-31T08:02:03;10.70;;;6.70;;
6517;SDS011;3292;48.944;9.240;2022-10-31T08:04:31;9.30;;;6.10;;
6517;SDS011;3292;48.944;9.240;2022-10-31T08:06:57;10.30;;;6.10;;
6517;SDS011;3292;48.944;9.240;2022-10-31T08:09:24;8.93;;;6.43;;
6517;SDS011;3292;48.944;9.240;2022-10-31T08:11:52;11.23;;;6.23;;
6517;SDS011;3292;48.944;9.240;2022-10-31T08:14:19;6.90;;;5.83;;
6517;SDS011;3292;48.944;9.240;2022-10-31T08:16:46;11.53;;;7.43;;
6517;SDS011;3292;48.944;9.240;2022-10-31T08:19:14;11.40;;;5.80;;
6517;SDS011;3292;48.944;9.240;2022-10-31T08:21:41;12.40;;;8.47;;
6517;SDS011;3292;48.944;9.240;2022-10-31T08:24:07;8.23;;;6.27;;
6517;SDS011;3292;48.944;9.240;2022-10-31T08:26:34;10.67;;;6.93;;
6517;SDS011;3292;48.944;9.240;2022-10-31T08:29:02;8.93;;;6.00;;
6517;SDS011;3292;48.944;9.240;2022-10-31T08:31:29;6.70;;;5.50;;
6517;SDS011;3292;48.944;9.240;2022-10-31T08:33:56;8.90;;;6.43;;
6517;SDS011;3292;48.944;9.240;2022-10-31T08:36:24;11.07;;;6.57;;
6517;SDS011;3292;48.944;9.240;2022-10-31T08:38:51;14.30;;;6.20;;
6517;SDS011;3292;48.944;9.240;2022-10-31T08:41:18;8.57;;;5.97;;
6517;SDS011;3292;48.944;9.240;2022-10-31T08:43:44;11.57;;;6.83;;
6517;SDS011;3292;48.944;9.240;2022-10-31T08:46:12;12.10;;;5.73;;
6517;SDS011;3292;48.944;9.240;2022-10-31T08:48:39;10.80;;;6.00;;
6517;SDS011;3292;48.944;9.240;2022-10-31T08:51:06;7.83;;;5.83;;
6517;SDS011;3292;48.944;9.240;2022-10-31T08:53:34;10.23;;;6.10;;
6517;SDS011;3292;48.944;9.240;2022-10-31T08:56:01;11.47;;;6.70;;
6517;SDS011;3292;48.944;9.240;2022-10-31T08:58:28;10.20;;;6.23;;
6517;SDS011;3292;48.944;9.240;2022-10-31T09:00:55;8.50;;;5.60;;
6517;SDS011;3292;48.944;9.240;2022-10-31T09:03:23;11.23;;;6.43;;
6517;SDS011;3292;48.944;9.240;2022-10-31T09:05:54;9.67;;;6.53;;
6517;SDS011;3292;48.944;9.240;2022-10-31T09:08:22;9.27;;;6.27;;
6517;SDS011;3292;48.944;9.240;2022-10-31T09:10:50;11.07;;;6.23;;
6517;SDS011;3292;48.944;9.240;2022-10-31T09:13:18;10.03;;;6.30;;
6517;SDS011;3292;48.944;9.240;2022-10-31T09:15:47;11.93;;;6.53;;
6517;SDS011;3292;48.944;9.240;2022-10-31T09:18:15;9.90;;;5.60;;
6517;SDS011;3292;48.944;9.240;2022-10-31T09:20:43;8.90;;;6.77;;
6517;SDS011;3292;48.944;9.240;2022-10-31T09:23:11;9.27;;;6.43;;
6517;SDS011;3292;48.944;9.240;2022-10-31T09:25:41;10.30;;;6.50;;
6517;SDS011;3292;48.944;9.240;2022-10-31T09:28:10;9.53;;;6.30;;
6517;SDS011;3292;48.944;9.240;2022-10-31T09:30:38;8.77;;;6.10;;
6517;SDS011;3292;48.944;9.240;2022-10-31T09:33:06;9.73;;;6.63;;
6517;SDS011;3292;48.944;9.240;2022-10-31T09:35:35;9.73;;;6.90;;
6517;SDS011;3292;48.944;9.240;2022-10-31T09:38:03;8.93;;;5.90;;
6517;SDS011;3292;48.944;9.240;2022-10-31T09:40:32;10.73;;;5.73;;
6517;SDS011;3292;48.944;9.240;2022-10-31T09:43:03;10.33;;;6.83;;
6517;SDS011;3292;48.944;9.240;2022-10-31T09:45:37;9.63;;;7.50;;
6517;SDS011;3292;48.944;9.240;2022-10-31T09:48:14;8.53;;;6.40;;
6517;SDS011;3292;48.944;9.240;2022-10-31T09:50:57;10.57;;;6.33;;
6517;SDS011;3292;48.944;9.240;2022-10-31T09:53:29;10.07;;;6.87;;
6517;SDS011;3292;48.944;9.240;2022-10-31T09:56:00;7.23;;;5.87;;
6517;SDS011;3292;48.944;9.240;2022-10-31T09:58:30;8.57;;;6.10;;
6517;SDS011;3292;48.944;9.240;2022-10-31T10:01:02;7.93;;;6.17;;
6517;SDS011;3292;48.944;9.240;2022-10-31T10:03:32;8.07;;;5.67;;
6517;SDS011;3292;48.944;9.240;2022-10-31T10:06:04;9.23;;;5.83;;
6517;SDS011;3292;48.944;9.240;2022-10-31T10:08:37;7.77;;;5.70;;
6517;SDS011;3292;48.944;9.240;2022-10-31T10:11:08;8.37;;;6.13;;
6517;SDS011;3292;48.944;9.240;2022-10-31T10:13:51;6.97;;;5.80;;
6517;SDS011;3292;48.944;9.240;2022-10-31T10:16:30;9.03;;;6.10;;
6517;SDS011;3292;48.944;9.240;2022-10-31T10:19:14;9.50;;;6.57;;
6517;SDS011;3292;48.944;9.240;2022-10-31T10:22:00;8.13;;;6.07;;
6517;SDS011;3292;48.944;9.240;2022-10-31T10:24:39;11.93;;;6.50;;
6517;SDS011;3292;48.944;9.240;2022-10-31T10:27:20;8.63;;;6.67;;
6517;SDS011;3292;48.944;9.240;2022-10-31T10:29:53;9.93;;;6.43;;
6517;SDS011;3292;48.944;9.240;2022-10-31T10:32:28;9.83;;;5.93;;
6517;SDS011;3292;48.944;9.240;2022-10-31T10:34:57;9.37;;;6.43;;
6517;SDS011;3292;48.944;9.240;2022-10-31T10:37:29;12.93;;;6.63;;
6517;SDS011;3292;48.944;9.240;2022-10-31T10:40:00;11.97;;;6.23;;
6517;SDS011;3292;48.944;9.240;2022-10-31T10:42:33;11.93;;;6.47;;
6517;SDS011;3292;48.944;9.240;2022-10-31T10:45:20;10.50;;;6.63;;
6517;SDS011;3292;48.944;9.240;2022-10-31T10:48:13;9.93;;;6.83;;
6517;SDS011;3292;48.944;9.240;2022-10-31T10:50:44;9.37;;;6.60;;
6517;SDS011;3292;48.944;9.240;2022-10-31T10:53:18;12.57;;;7.27;;
6517;SDS011;3292;48.944;9.240;2022-10-31T10:56:01;11.10;;;7.00;;
6517;SDS011;3292;48.944;9.240;2022-10-31T10:58:37;9.13;;;6.53;;
6517;SDS011;3292;48.944;9.240;2022-10-31T11:01:08;13.40;;;7.00;;
6517;SDS011;3292;48.944;9.240;2022-10-31T11:03:39;9.00;;;6.20;;
6517;SDS011;3292;48.944;9.240;2022-10-31T11:06:16;10.87;;;7.37;;
6517;SDS011;3292;48.944;9.240;2022-10-31T11:08:47;11.17;;;7.10;;
6517;SDS011;3292;48.944;9.240;2022-10-31T11:11:19;11.40;;;7.23;;
6517;SDS011;3292;48.944;9.240;2022-10-31T11:13:53;17.20;;;6.93;;
6517;SDS011;3292;48.944;9.240;2022-10-31T11:16:28;14.97;;;6.97;;
6517;SDS011;3292;48.944;9.240;2022-10-31T11:19:09;11.80;;;6.70;;
6517;SDS011;3292;48.944;9.240;2022-10-31T11:21:43;12.87;;;6.80;;
6517;SDS011;3292;48.944;9.240;2022-10-31T11:24:14;16.37;;;7.20;;
6517;SDS011;3292;48.944;9.240;2022-10-31T11:26:44;11.10;;;7.30;;
6517;SDS011;3292;48.944;9.240;2022-10-31T11:29:16;9.90;;;6.47;;
6517;SDS011;3292;48.944;9.240;2022-10-31T11:31:46;10.77;;;7.20;;
6517;SDS011;3292;48.944;9.240;2022-10-31T11:34:22;10.40;;;6.90;;
6517;SDS011;3292;48.944;9.240;2022-10-31T11:36:54;12.43;;;6.90;;
6517;SDS011;3292;48.944;9.240;2022-10-31T11:39:23;8.07;;;6.77;;
6517;SDS011;3292;48.944;9.240;2022-10-31T11:41:51;12.03;;;7.37;;
6517;SDS011;3292;48.944;9.240;2022-10-31T11:44:20;13.93;;;7.57;;
6517;SDS011;3292;48.944;9.240;2022-10-31T11:46:49;10.17;;;7.07;;
6517;SDS011;3292;48.944;9.240;2022-10-31T11:49:22;10.37;;;7.30;;
6517;SDS011;3292;48.944;9.240;2022-10-31T11:51:55;11.97;;;7.40;;
6517;SDS011;3292;48.944;9.240;2022-10-31T11:54:24;10.67;;;7.00;;
6517;SDS011;3292;48.944;9.240;2022-10-31T11:56:54;8.90;;;6.60;;
6517;SDS011;3292;48.944;9.240;2022-10-31T11:59:23;11.40;;;7.67;;
6517;SDS011;3292;48.944;9.240;2022-10-31T12:01:55;8.80;;;6.60;;
6517;SDS011;3292;48.944;9.240;2022-10-31T12:04:27;9.87;;;6.70;;
6517;SDS011;3292;48.944;9.240;2022-10-31T12:06:57;9.60;;;7.03;;
6517;SDS011;3292;48.944;9.240;2022-10-31T12:09:25;11.00;;;7.30;;
6517;SDS011;3292;48.944;9.240;2022-10-31T12:12:03;10.97;;;7.10;;
6517;SDS011;3292;48.944;9.240;2022-10-31T12:14:41;14.63;;;7.80;;
6517;SDS011;3292;48.944;9.240;2022-10-31T12:17:15;12.43;;;6.87;;
6517;SDS011;3292;48.944;9.240;2022-10-31T12:19:49;11.47;;;7.00;;
6517;SDS011;3292;48.944;9.240;2022-10-31T12:22:27;9.70;;;6.83;;
6517;SDS011;3292;48.944;9.240;2022-10-31T12:25:02;9.27;;;6.80;;
6517;SDS011;3292;48.944;9.240;2022-10-31T12:27:49;8.47;;;6.43;;
6517;SDS011;3292;48.944;9.240;2022-10-31T12:30:32;11.00;;;6.93;;
6517;SDS011;3292;48.944;9.240;2022-10-31T12:33:15;9.80;;;7.07;;
6517;SDS011;3292;48.944;9.240;2022-10-31T12:35:58;12.80;;;7.10;;
6517;SDS011;3292;48.944;9.240;2022-10-31T12:38:40;9.23;;;6.80;;
6517;SDS011;3292;48.944;9.240;2022-10-31T12:41:26;8.60;;;6.67;;
6517;SDS011;3292;48.944;9.240;2022-10-31T12:44:06;9.93;;;7.00;;
6517;SDS011;3292;48.944;9.240;2022-10-31T12:46:51;10.03;;;7.13;;
6517;SDS011;3292;48.944;9.240;2022-10-31T12:49:30;9.43;;;6.57;;
6517;SDS011;3292;48.944;9.240;2022-10-31T12:52:09;8.07;;;6.27;;
6517;SDS011;3292;48.944;9.240;2022-10-31T12:54:49;8.23;;;7.10;;
6517;SDS011;3292;48.944;9.240;2022-10-31T12:57:30;12.60;;;7.20;;
6517;SDS011;3292;48.944;9.240;2022-10-31T13:00:02;9.53;;;6.63;;
6517;SDS011;3292;48.944;9.240;2022-10-31T13:02:31;8.73;;;6.67;;
6517;SDS011;3292;48.944;9.240;2022-10-31T13:05:03;9.07;;;7.23;;
6517;SDS011;3292;48.944;9.240;2022-10-31T13:07:39;8.97;;;6.70;;
6517;SDS011;3292;48.944;9.240;2022-10-31T13:10:17;9.20;;;6.40;;
6517;SDS011;3292;48.944;9.240;2022-10-31T13:12:49;9.57;;;7.77;;
6517;SDS011;3292;48.944;9.240;2022-10-31T13:15:20;10.57;;;7.57;;
6517;SDS011;3292;48.944;9.240;2022-10-31T13:17:51;9.47;;;7.10;;
6517;SDS011;3292;48.944;9.240;2022-10-31T13:20:23;13.17;;;6.90;;
6517;SDS011;3292;48.944;9.240;2022-10-31T13:22:56;10.10;;;7.77;;
6517;SDS011;3292;48.944;9.240;2022-10-31T13:25:30;9.43;;;6.60;;
6517;SDS011;3292;48.944;9.240;2022-10-31T13:28:03;13.17;;;7.63;;
6517;SDS011;3292;48.944;9.240;2022-10-31T13:30:36;8.00;;;6.70;;
6517;SDS011;3292;48.944;9.240;2022-10-31T13:33:07;11.00;;;7.27;;
6517;SDS011;3292;48.944;9.240;2022-10-31T13:35:40;10.93;;;7.30;;
6517;SDS011;3292;48.944;9.240;2022-10-31T13:38:18;10.20;;;7.03;;
6517;SDS011;3292;48.944;9.240;2022-10-31T13:40:50;13.07;;;7.00;;
6517;SDS011;3292;48.944;9.240;2022-10-31T13:43:23;11.57;;;7.47;;
6517;SDS011;3292;48.944;9.240;2022-10-31T13:45:57;11.50;;;7.33;;
6517;SDS011;3292;48.944;9.240;2022-10-31T13:48:38;15.33;;;7.50;;
6517;SDS011;3292;48.944;9.240;2022-10-31T13:51:08;11.90;;;7.63;;
6517;SDS011;3292;48.944;9.240;2022-10-31T13:53:39;10.87;;;7.80;;
6517;SDS011;3292;48.944;9.240;2022-10-31T13:56:18;10.27;;;6.97;;
6517;SDS011;3292;48.944;9.240;2022-10-31T13:59:02;9.80;;;6.87;;
6517;SDS011;3292;48.944;9.240;2022-10-31T14:01:45;9.50;;;7.40;;
6517;SDS011;3292;48.944;9.240;2022-10-31T14:04:15;10.20;;;7.77;;
6517;SDS011;3292;48.944;9.240;2022-10-31T14:06:45;12.07;;;7.07;;
6517;SDS011;3292;48.944;9.240;2022-10-31T14:09:27;12.00;;;7.17;;
6517;SDS011;3292;48.944;9.240;2022-10-31T14:11:57;9.97;;;7.13;;
6517;SDS011;3292;48.944;9.240;2022-10-31T14:14:29;12.47;;;7.43;;
6517;SDS011;3292;48.944;9.240;2022-10-31T14:17:00;10.90;;;7.27;;
6517;SDS011;3292;48.944;9.240;2022-10-31T14:19:27;9.30;;;6.93;;
6517;SDS011;3292;48.944;9.240;2022-10-31T14:21:54;15.53;;;7.50;;
6517;SDS011;3292;48.944;9.240;2022-10-31T14:24:32;11.40;;;6.90;;
6517;SDS011;3292;48.944;9.240;2022-10-31T14:27:02;15.93;;;8.00;;
6517;SDS011;3292;48.944;9.240;2022-10-31T14:29:50;13.07;;;7.20;;
6517;SDS011;3292;48.944;9.240;2022-10-31T14:32:19;12.60;;;6.57;;
6517;SDS011;3292;48.944;9.240;2022-10-31T14:34:52;12.57;;;7.27;;
6517;SDS011;3292;48.944;9.240;2022-10-31T14:43:04;10.13;;;7.07;;
6517;SDS011;3292;48.944;9.240;2022-10-31T14:45:44;14.03;;;7.70;;
6517;SDS011;3292;48.944;9.240;2022-10-31T14:48:33;11.50;;;7.40;;
6517;SDS011;3292;48.944;9.240;2022-10-31T14:51:14;8.97;;;6.87;;
6517;SDS011;3292;48.944;9.240;2022-10-31T14:53:45;18.30;;;10.53;;
6517;SDS011;3292;48.944;9.240;2022-10-31T14:56:16;19.67;;;11.80;;
6517;SDS011;3292;48.944;9.240;2022-10-31T14:58:49;15.77;;;10.23;;
6517;SDS011;3292;48.944;9.240;2022-10-31T15:01:18;16.67;;;10.20;;
6517;SDS011;3292;48.944;9.240;2022-10-31T15:03:49;22.20;;;13.50;;
6517;SDS011;3292;48.944;9.240;2022-10-31T15:06:17;29.73;;;16.77;;
6517;SDS011;3292;48.944;9.240;2022-10-31T15:08:47;22.07;;;14.63;;
6517;SDS011;3292;48.944;9.240;2022-10-31T15:11:17;21.30;;;12.67;;
6517;SDS011;3292;48.944;9.240;2022-10-31T15:13:46;13.60;;;9.30;;
6517;SDS011;3292;48.944;9.240;2022-10-31T15:16:14;14.10;;;8.20;;
6517;SDS011;3292;48.944;9.240;2022-10-31T15:18:46;9.80;;;7.30;;
6517;SDS011;3292;48.944;9.240;2022-10-31T15:21:19;11.87;;;7.03;;
6517;SDS011;3292;48.944;9.240;2022-10-31T15:23:47;10.17;;;7.00;;
6517;SDS011;3292;48.944;9.240;2022-10-31T15:26:20;13.30;;;7.37;;
6517;SDS011;3292;48.944;9.240;2022-10-31T15:28:58;10.10;;;7.07;;
6517;SDS011;3292;48.944;9.240;2022-10-31T15:31:28;12.70;;;7.30;;
6517;SDS011;3292;48.944;9.240;2022-10-31T15:33:58;12.13;;;7.90;;